createdAt,value
2022-08-26T00:00:11.367Z,99455.47
2022-08-26T00:03:01.591Z,99449.88
2022-08-26T00:05:51.800Z,99454.16
2022-08-26T00:08:41.617Z,99454.31
2022-08-26T00:11:30.022Z,99452.84
2022-08-26T00:14:18.488Z,99457.28
2022-08-26T00:17:08.640Z,99456.63
2022-08-26T00:19:57.474Z,99451.66
2022-08-26T00:22:45.952Z,99459.22
2022-08-26T00:25:35.804Z,99456.06
2022-08-26T00:28:31.010Z,99452.81
2022-08-26T00:31:19.580Z,99464.66
2022-08-26T00:34:09.935Z,99461.34
2022-08-26T00:36:59.805Z,99461.16
2022-08-26T00:39:48.600Z,99463.31
2022-08-26T00:42:38.765Z,99463.94
2022-08-26T00:45:46.813Z,99464.25
2022-08-26T00:48:35.635Z,99465.56
2022-08-26T00:51:29.960Z,99467.19
2022-08-26T00:54:18.597Z,99459.22
2022-08-26T00:57:16.449Z,99463.09
2022-08-26T01:00:10.563Z,99456.84
2022-08-26T01:03:00.756Z,99456.63
2022-08-26T01:05:49.291Z,99459.06
2022-08-26T01:08:39.503Z,99446.88
2022-08-26T01:11:27.908Z,99451.25
2022-08-26T01:14:16.622Z,99445.78
2022-08-26T01:17:09.146Z,99441.53
2022-08-26T01:20:01.280Z,99442.00
2022-08-26T01:22:56.055Z,99445.59
2022-08-26T01:25:46.694Z,99444.44
2022-08-26T01:28:35.778Z,99449.72
2022-08-26T01:31:26.719Z,99453.34
2022-08-26T01:34:18.702Z,99446.78
2022-08-26T01:37:11.737Z,99449.09
2022-08-26T01:40:07.420Z,99445.19
2022-08-26T01:42:56.180Z,99448.34
2022-08-26T01:45:44.897Z,99446.19
2022-08-26T01:48:33.995Z,99444.75
2022-08-26T01:51:24.327Z,99442.59
2022-08-26T01:54:13.855Z,99450.78
2022-08-26T01:57:04.074Z,99456.22
2022-08-26T01:59:52.555Z,99451.78
2022-08-26T02:02:41.649Z,99454.28
2022-08-26T02:05:32.036Z,99462.31
2022-08-26T02:08:24.576Z,99462.31
2022-08-26T02:11:13.505Z,99464.41
2022-08-26T02:14:06.491Z,99473.94
2022-08-26T02:16:55.320Z,99469.00
2022-08-26T02:19:50.167Z,99460.72
2022-08-26T02:22:40.383Z,99470.53
2022-08-26T02:25:32.084Z,99471.19
2022-08-26T02:28:20.627Z,99469.94
2022-08-26T02:31:10.645Z,99474.16
2022-08-26T02:34:10.791Z,99469.00
2022-08-26T02:36:59.517Z,99478.63
2022-08-26T02:39:48.040Z,99466.06
2022-08-26T02:42:37.480Z,99463.06
2022-08-26T02:45:27.460Z,99472.03
2022-08-26T02:48:19.604Z,99468.78
2022-08-26T02:51:08.093Z,99469.97
2022-08-26T02:53:56.890Z,99459.22
2022-08-26T02:56:45.742Z,99458.53
2022-08-26T02:59:35.942Z,99455.09
2022-08-26T03:02:24.617Z,99451.28
2022-08-26T03:05:15.419Z,99453.06
2022-08-26T03:08:05.108Z,99451.41
2022-08-26T03:10:53.590Z,99457.66
2022-08-26T03:13:42.228Z,99450.72
2022-08-26T03:16:33.673Z,99449.38
2022-08-26T03:19:22.889Z,99454.63
2022-08-26T03:22:14.501Z,99463.06
2022-08-26T03:25:03.592Z,99460.13
2022-08-26T03:27:52.330Z,99464.66
2022-08-26T03:30:39.875Z,99465.31
2022-08-26T03:33:34.008Z,99459.66
2022-08-26T03:36:22.628Z,99459.44
2022-08-26T03:39:14.476Z,99465.75
2022-08-26T03:42:03.025Z,99459.41
2022-08-26T03:44:52.042Z,99466.91
2022-08-26T03:47:40.598Z,99464.88
2022-08-26T03:50:29.356Z,99468.06
2022-08-26T03:53:23.772Z,99461.72
2022-08-26T03:56:14.484Z,99459.41
2022-08-26T03:59:02.927Z,99469.53
2022-08-26T04:01:51.486Z,99458.63
2022-08-26T04:04:40.221Z,99475.47
2022-08-26T04:07:28.767Z,99475.53
2022-08-26T04:10:28.582Z,99477.03
2022-08-26T04:13:19.217Z,99472.84
2022-08-26T04:16:08.019Z,99469.63
2022-08-26T04:18:59.056Z,99464.91
2022-08-26T04:21:48.278Z,99465.59
2022-08-26T04:24:39.510Z,99466.13
2022-08-26T04:27:28.037Z,99472.88
2022-08-26T04:30:18.186Z,99468.16
2022-08-26T04:33:13.025Z,99468.81
2022-08-26T04:36:02.595Z,99463.56
2022-08-26T04:38:51.515Z,99462.59
2022-08-26T04:41:41.938Z,99458.16
2022-08-26T04:44:31.107Z,99454.84
2022-08-26T04:47:21.013Z,99468.00
2022-08-26T04:50:10.956Z,99471.44
2022-08-26T04:52:59.860Z,99474.75
2022-08-26T04:55:48.459Z,99476.41
2022-08-26T04:58:37.331Z,99474.91
2022-08-26T05:01:25.910Z,99475.94
2022-08-26T05:04:16.305Z,99483.47
2022-08-26T05:07:08.011Z,99486.22
2022-08-26T05:09:58.189Z,99482.78
2022-08-26T05:12:46.670Z,99486.91
2022-08-26T05:15:35.723Z,99483.16
2022-08-26T05:18:25.828Z,99485.19
2022-08-26T05:21:20.177Z,99483.94
2022-08-26T05:24:10.158Z,99487.06
2022-08-26T05:26:58.961Z,99490.25
2022-08-26T05:29:54.632Z,99484.66
2022-08-26T05:32:43.763Z,99486.03
2022-08-26T05:35:34.141Z,99487.25
2022-08-26T05:38:24.045Z,99489.44
2022-08-26T05:41:18.929Z,99494.25
2022-08-26T05:44:10.397Z,99490.63
2022-08-26T05:46:58.858Z,99496.09
2022-08-26T05:49:51.541Z,99490.28
2022-08-26T05:52:40.328Z,99506.13
2022-08-26T05:55:30.270Z,99503.41
2022-08-26T05:58:20.143Z,99499.41
2022-08-26T06:01:10.627Z,99498.41
2022-08-26T06:04:02.019Z,99487.78
2022-08-26T06:06:50.588Z,99495.09
2022-08-26T06:09:39.118Z,99497.09
2022-08-26T06:12:28.905Z,99501.25
2022-08-26T06:15:17.644Z,99501.72
2022-08-26T06:18:06.792Z,99507.69
2022-08-26T06:20:57.663Z,99518.69
2022-08-26T06:24:05.145Z,99544.22
2022-08-26T06:26:54.977Z,99529.19
2022-08-26T06:29:44.973Z,99539.66
2022-08-26T06:32:33.436Z,99542.22
2022-08-26T06:35:21.947Z,99536.66
2022-08-26T06:38:10.960Z,99542.69
2022-08-26T06:40:59.883Z,99540.94
2022-08-26T06:43:48.514Z,99535.25
2022-08-26T06:46:38.328Z,99536.47
2022-08-26T06:49:27.780Z,99537.38
2022-08-26T06:52:21.179Z,99540.47
2022-08-26T06:55:12.952Z,99541.88
2022-08-26T06:58:01.452Z,99529.31
2022-08-26T07:00:52.997Z,99529.88
2022-08-26T07:03:42.806Z,99520.31
2022-08-26T07:06:38.050Z,99523.81
2022-08-26T07:09:30.305Z,99514.41
2022-08-26T07:12:19.084Z,99530.69
2022-08-26T07:15:08.602Z,99526.75
2022-08-26T07:17:57.146Z,99529.00
2022-08-26T07:20:47.097Z,99526.25
2022-08-26T07:23:36.248Z,99534.59
2022-08-26T07:26:26.409Z,99532.09
2022-08-26T07:29:17.289Z,99534.97
2022-08-26T07:32:06.480Z,99548.09
2022-08-26T07:34:54.965Z,99536.63
2022-08-26T07:37:44.787Z,99540.13
2022-08-26T07:40:34.025Z,99543.22
2022-08-26T07:43:22.589Z,99539.25
2022-08-26T07:46:16.466Z,99541.56
2022-08-26T07:49:05.718Z,99542.56
2022-08-26T07:51:55.639Z,99541.28
2022-08-26T07:54:45.453Z,99539.94
2022-08-26T07:57:34.540Z,99537.94
2022-08-26T08:00:23.566Z,99536.28
2022-08-26T08:03:12.588Z,99543.88
2022-08-26T08:06:02.596Z,99544.56
2022-08-26T08:08:51.652Z,99538.63
2022-08-26T08:11:41.628Z,99534.47
2022-08-26T08:14:32.000Z,99540.75
2022-08-26T08:17:20.495Z,99539.41
2022-08-26T08:20:11.069Z,99536.28
2022-08-26T08:22:59.826Z,99541.69
2022-08-26T08:25:49.076Z,99537.91
2022-08-26T08:28:39.096Z,99546.16
2022-08-26T08:31:56.176Z,99546.69
2022-08-26T08:34:38.358Z,99543.38
2022-08-26T08:37:26.872Z,99539.56
2022-08-26T08:40:18.088Z,99536.34
2022-08-26T08:43:08.128Z,99538.78
2022-08-26T08:46:00.238Z,99540.06
2022-08-26T08:48:52.198Z,99539.91
2022-08-26T08:51:46.795Z,99542.56
2022-08-26T08:54:35.312Z,99547.16
2022-08-26T08:57:29.068Z,99546.84
2022-08-26T09:00:19.330Z,99549.13
2022-08-26T09:03:13.284Z,99543.38
2022-08-26T09:06:01.779Z,99535.31
2022-08-26T09:08:51.441Z,99541.13
2022-08-26T09:11:39.900Z,99535.28
2022-08-26T09:14:29.173Z,99535.09
2022-08-26T09:17:28.004Z,99534.38
2022-08-26T09:20:26.392Z,99530.47
2022-08-26T09:23:15.098Z,99522.38
2022-08-26T09:26:15.593Z,99527.72
2022-08-26T09:29:08.687Z,99512.34
2022-08-26T09:32:19.339Z,99519.63
2022-08-26T09:35:12.099Z,99511.06
2022-08-26T09:38:02.003Z,99520.47
2022-08-26T09:40:58.965Z,99521.94
2022-08-26T09:44:07.821Z,99530.22
2022-08-26T09:47:05.064Z,99528.03
2022-08-26T09:50:00.073Z,99531.56
2022-08-26T09:52:48.805Z,99513.22
2022-08-26T09:55:41.853Z,99504.16
2022-08-26T09:58:34.737Z,99492.03
2022-08-26T10:01:31.341Z,99492.06
2022-08-26T10:04:22.990Z,99482.38
2022-08-26T10:07:11.530Z,99485.84
2022-08-26T10:10:00.030Z,99488.72
2022-08-26T10:13:05.519Z,99490.03
2022-08-26T10:16:01.302Z,99486.38
2022-08-26T10:18:56.865Z,99482.66
2022-08-26T10:21:54.063Z,99468.78
2022-08-26T10:24:47.721Z,99461.69
2022-08-26T10:27:50.972Z,99458.69
2022-08-26T10:30:47.924Z,99449.97
2022-08-26T10:33:36.406Z,99450.81
2022-08-26T10:37:10.520Z,99453.94
2022-08-26T10:39:56.944Z,99451.94
2022-08-26T10:42:50.995Z,99455.66
2022-08-26T10:45:48.832Z,99450.38
2022-08-26T10:48:43.643Z,99450.34
2022-08-26T10:51:36.477Z,99439.91
2022-08-26T10:54:28.649Z,99435.97
2022-08-26T10:57:20.337Z,99438.22
2022-08-26T11:00:27.596Z,99433.50
2022-08-26T11:03:36.406Z,99436.78
2022-08-26T11:06:28.183Z,99427.81
2022-08-26T11:09:44.751Z,99420.75
2022-08-26T11:12:57.244Z,99416.16
2022-08-26T11:16:01.267Z,99410.81
2022-08-26T11:18:54.649Z,99422.34
2022-08-26T11:21:49.505Z,99413.28
2022-08-26T11:25:02.499Z,99416.03
2022-08-26T11:27:57.636Z,99413.88
2022-08-26T11:30:56.968Z,99408.50
2022-08-26T11:33:50.989Z,99396.53
2022-08-26T11:36:59.686Z,99401.16
2022-08-26T11:39:54.475Z,99393.44
2022-08-26T11:42:45.287Z,99397.63
2022-08-26T11:45:36.105Z,99392.38
2022-08-26T11:48:33.167Z,99386.41
2022-08-26T11:51:25.142Z,99390.56
2022-08-26T11:54:15.972Z,99389.56
2022-08-26T11:57:09.407Z,99390.91
2022-08-26T12:00:00.158Z,99399.13
2022-08-26T12:02:49.021Z,99396.72
2022-08-26T12:05:45.206Z,99394.31
2022-08-26T12:08:36.650Z,99387.28
2022-08-26T12:11:26.752Z,99388.66
2022-08-26T12:14:19.318Z,99374.00
2022-08-26T12:17:24.075Z,99364.91
2022-08-26T12:20:45.684Z,99371.25
2022-08-26T12:23:43.282Z,99357.72
2022-08-26T12:26:33.535Z,99359.69
2022-08-26T12:29:27.584Z,99349.41
2022-08-26T12:32:17.707Z,99355.94
2022-08-26T12:35:08.817Z,99345.31
2022-08-26T12:37:57.590Z,99347.94
2022-08-26T12:40:47.630Z,99345.06
2022-08-26T12:43:42.407Z,99344.59
2022-08-26T12:46:30.974Z,99350.69
2022-08-26T12:49:20.009Z,99342.34
2022-08-26T12:52:10.558Z,99338.84
2022-08-26T12:55:01.076Z,99336.38
2022-08-26T12:57:51.125Z,99335.41
2022-08-26T13:00:41.177Z,99336.22
2022-08-26T13:03:43.745Z,99327.00
2022-08-26T13:06:32.532Z,99328.69
2022-08-26T13:09:31.306Z,99307.13
2022-08-26T13:12:30.979Z,99311.06
2022-08-26T13:15:20.846Z,99308.59
2022-08-26T13:18:09.290Z,99301.88
2022-08-26T13:20:57.772Z,99288.81
2022-08-26T13:23:47.460Z,99293.38
2022-08-26T13:26:36.171Z,99287.34
2022-08-26T13:29:24.656Z,99284.75
2022-08-26T13:32:14.823Z,99279.75
2022-08-26T13:35:05.599Z,99277.78
2022-08-26T13:37:56.719Z,99277.41
2022-08-26T13:40:45.262Z,99276.97
2022-08-26T13:43:34.151Z,99273.56
2022-08-26T13:46:22.862Z,99270.38
2022-08-26T13:49:12.777Z,99277.31
2022-08-26T13:52:03.592Z,99265.97
2022-08-26T13:54:52.087Z,99265.31
2022-08-26T13:57:42.407Z,99267.13
2022-08-26T14:00:33.361Z,99268.63
2022-08-26T14:03:22.780Z,99273.03
2022-08-26T14:06:12.841Z,99274.94
2022-08-26T14:09:01.361Z,99263.31
2022-08-26T14:11:54.392Z,99272.00
2022-08-26T14:14:43.489Z,99276.31
2022-08-26T14:17:32.728Z,99267.38
2022-08-26T14:20:24.793Z,99274.81
2022-08-26T14:23:15.304Z,99274.00
2022-08-26T14:26:08.014Z,99275.13
2022-08-26T14:28:56.656Z,99268.97
2022-08-26T14:31:45.374Z,99269.34
2022-08-26T14:34:33.958Z,99262.34
2022-08-26T14:37:22.790Z,99254.25
2022-08-26T14:40:13.965Z,99248.38
2022-08-26T14:43:02.461Z,99250.97
2022-08-26T14:45:52.205Z,99250.16
2022-08-26T14:48:40.757Z,99245.97
2022-08-26T14:51:29.244Z,99243.88
2022-08-26T14:54:20.779Z,99240.13
2022-08-26T14:57:12.438Z,99251.44
2022-08-26T15:00:00.943Z,99246.78
2022-08-26T15:02:49.639Z,99243.88
2022-08-26T15:05:39.821Z,99261.59
2022-08-26T15:08:28.380Z,99281.81
2022-08-26T15:11:18.304Z,99278.38
2022-08-26T15:14:08.127Z,99292.22
2022-08-26T15:17:07.511Z,99287.38
2022-08-26T15:19:55.971Z,99287.72
2022-08-26T15:22:44.472Z,99291.84
2022-08-26T15:25:33.127Z,99294.13
2022-08-26T15:28:21.636Z,99297.28
2022-08-26T15:31:12.234Z,99293.69
2022-08-26T15:34:02.574Z,99302.44
2022-08-26T15:36:51.093Z,99292.22
2022-08-26T15:39:40.810Z,99278.47
2022-08-26T15:42:29.279Z,99274.50
2022-08-26T15:45:24.797Z,99267.22
2022-08-26T15:48:16.230Z,99261.22
2022-08-26T15:51:05.288Z,99274.41
2022-08-26T15:53:56.099Z,99293.94
2022-08-26T15:56:44.748Z,99292.97
2022-08-26T15:59:33.293Z,99315.03
2022-08-26T16:02:22.022Z,99316.28
2022-08-26T16:05:12.487Z,99319.53
2022-08-26T16:08:01.872Z,99320.66
2022-08-26T16:10:51.256Z,99326.47
2022-08-26T16:13:40.289Z,99324.59
2022-08-26T16:16:28.821Z,99319.91
2022-08-26T16:19:17.423Z,99340.84
2022-08-26T16:22:09.321Z,99335.97
2022-08-26T16:24:58.460Z,99326.78
2022-08-26T16:27:46.951Z,99341.78
2022-08-26T16:30:35.872Z,99342.56
2022-08-26T16:33:29.217Z,99349.50
2022-08-26T16:36:18.452Z,99353.41
2022-08-26T16:39:08.942Z,99364.69
2022-08-26T16:41:57.651Z,99364.25
2022-08-26T16:44:46.435Z,99356.88
2022-08-26T16:47:34.986Z,99361.97
2022-08-26T16:50:24.092Z,99377.06
2022-08-26T16:56:08.070Z,99384.56
2022-08-26T16:58:56.556Z,99363.22
2022-08-26T17:01:45.167Z,99376.22
2022-08-26T17:04:33.806Z,99391.66
2022-08-26T17:07:22.278Z,99395.59
2022-08-26T17:10:12.886Z,99399.56
2022-08-26T17:13:02.810Z,99401.72
2022-08-26T17:15:55.064Z,99397.56
2022-08-26T17:18:48.398Z,99404.63
2022-08-26T17:21:37.214Z,99402.31
2022-08-26T17:24:25.655Z,99402.25
2022-08-26T17:27:14.647Z,99391.13
2022-08-26T17:30:05.887Z,99403.00
2022-08-26T17:32:54.386Z,99397.50
2022-08-26T17:35:42.919Z,99395.34
2022-08-26T17:38:31.437Z,99389.09
2022-08-26T17:41:19.941Z,99402.41
2022-08-26T17:44:09.512Z,99414.09
2022-08-26T17:46:59.265Z,99416.53
2022-08-26T17:49:47.769Z,99415.44
2022-08-26T17:52:36.467Z,99418.00
2022-08-26T17:55:24.957Z,99417.38
2022-08-26T17:58:14.584Z,99434.81
2022-08-26T18:01:04.301Z,99424.13
2022-08-26T18:04:00.102Z,99432.44
2022-08-26T18:06:49.555Z,99428.97
2022-08-26T18:09:38.057Z,99426.16
2022-08-26T18:12:26.544Z,99431.63
2022-08-26T18:15:18.452Z,99426.06
2022-08-26T18:18:07.180Z,99420.75
2022-08-26T18:21:01.890Z,99420.28
2022-08-26T18:23:50.893Z,99427.09
2022-08-26T18:26:41.165Z,99423.38
2022-08-26T18:29:29.737Z,99422.91
2022-08-26T18:32:18.304Z,99425.25
2022-08-26T18:35:08.219Z,99426.31
2022-08-26T18:37:58.487Z,99435.13
2022-08-26T18:40:59.496Z,99442.16
2022-08-26T18:43:48.064Z,99461.91
2022-08-26T18:46:36.877Z,99460.53
2022-08-26T18:49:25.429Z,99471.97
2022-08-26T18:52:13.925Z,99479.56
2022-08-26T18:55:04.619Z,99481.63
2022-08-26T18:57:53.129Z,99483.34
2022-08-26T19:00:41.616Z,99482.03
2022-08-26T19:03:30.139Z,99477.78
2022-08-26T19:06:20.675Z,99478.47
2022-08-26T19:09:11.917Z,99489.88
2022-08-26T19:12:05.324Z,99490.72
2022-08-26T19:14:54.455Z,99501.44
2022-08-26T19:17:42.946Z,99494.69
2022-08-26T19:20:31.501Z,99504.13
2022-08-26T19:23:31.320Z,99499.50
2022-08-26T19:26:20.702Z,99495.03
2022-08-26T19:29:10.613Z,99509.25
2022-08-26T19:34:47.452Z,99510.22
2022-08-26T19:37:35.984Z,99521.13
2022-08-26T19:40:25.361Z,99516.50
2022-08-26T19:43:13.888Z,99531.00
2022-08-26T19:48:58.544Z,99528.69
2022-08-26T19:51:47.003Z,99538.25
2022-08-26T19:54:36.222Z,99534.78
2022-08-26T19:57:24.663Z,99539.38
2022-08-26T20:00:15.721Z,99531.88
2022-08-26T20:03:05.708Z,99545.81
2022-08-26T20:05:54.363Z,99549.53
2022-08-26T20:08:43.446Z,99546.47
2022-08-26T20:11:32.686Z,99547.88
2022-08-26T20:14:23.131Z,99549.81
2022-08-26T20:17:11.760Z,99551.34
2022-08-26T20:20:33.401Z,99557.69
2022-08-26T20:23:22.270Z,99566.72
2022-08-26T20:26:10.762Z,99566.44
2022-08-26T20:28:59.331Z,99566.66
2022-08-26T20:31:47.986Z,99566.63
2022-08-26T20:34:36.950Z,99565.41
2022-08-26T20:37:26.839Z,99566.53
2022-08-26T20:40:15.456Z,99575.00
2022-08-26T20:43:05.957Z,99569.38
2022-08-26T20:45:54.584Z,99568.84
2022-08-26T20:48:43.210Z,99575.38
2022-08-26T20:51:32.206Z,99578.72
2022-08-26T20:54:27.530Z,99575.19
2022-08-26T20:57:16.766Z,99578.38
2022-08-26T21:00:07.152Z,99572.88
2022-08-26T21:02:56.553Z,99566.13
2022-08-26T21:05:45.209Z,99557.19
2022-08-26T21:08:33.651Z,99554.19
2022-08-26T21:11:23.647Z,99552.44
2022-08-26T21:14:15.956Z,99553.84
2022-08-26T21:17:05.503Z,99550.09
2022-08-26T21:19:54.137Z,99548.81
2022-08-26T21:22:42.797Z,99547.00
2022-08-26T21:25:31.320Z,99544.25
2022-08-26T21:28:21.215Z,99559.03
2022-08-26T21:31:11.994Z,99559.34
2022-08-26T21:34:00.608Z,99569.16
2022-08-26T21:36:49.613Z,99576.47
2022-08-26T21:39:38.165Z,99584.72
2022-08-26T21:42:28.584Z,99585.13
2022-08-26T21:45:18.657Z,99581.44
2022-08-26T21:48:07.866Z,99581.03
2022-08-26T21:50:57.219Z,99583.94
2022-08-26T21:53:45.752Z,99588.50
2022-08-26T21:56:36.537Z,99586.47
2022-08-26T21:59:25.219Z,99594.47
2022-08-26T22:02:15.599Z,99591.56
2022-08-26T22:05:04.315Z,99597.66
2022-08-26T22:07:52.967Z,99605.53
2022-08-26T22:10:41.578Z,99601.13
2022-08-26T22:13:31.747Z,99618.81
2022-08-26T22:16:20.342Z,99612.00
2022-08-26T22:19:17.224Z,99611.34
2022-08-26T22:22:06.122Z,99610.50
2022-08-26T22:24:54.663Z,99601.38
2022-08-26T22:27:43.084Z,99604.56
2022-08-26T22:30:31.619Z,99605.94
2022-08-26T22:33:20.145Z,99598.91
2022-08-26T22:36:16.451Z,99597.22
2022-08-26T22:39:05.180Z,99594.19
2022-08-26T22:41:55.153Z,99595.31
2022-08-26T22:44:44.063Z,99590.19
2022-08-26T22:47:32.624Z,99590.34
2022-08-26T22:50:24.403Z,99609.13
2022-08-26T22:53:14.372Z,99612.16
2022-08-26T22:56:03.020Z,99614.25
2022-08-26T22:58:51.688Z,99611.91
2022-08-26T23:01:42.039Z,99610.38
2022-08-26T23:04:30.638Z,99611.63
2022-08-26T23:07:19.556Z,99615.34
2022-08-26T23:10:10.866Z,99613.59
2022-08-26T23:12:59.585Z,99613.44
2022-08-26T23:15:48.067Z,99616.06
2022-08-26T23:18:36.772Z,99615.78
2022-08-26T23:21:25.224Z,99607.75
2022-08-26T23:24:13.771Z,99618.25
2022-08-26T23:27:03.729Z,99621.88
2022-08-26T23:29:52.450Z,99620.34
2022-08-26T23:32:40.985Z,99621.28
2022-08-26T23:35:28.634Z,99612.47
2022-08-26T23:38:17.246Z,99611.63
2022-08-26T23:41:05.931Z,99608.34
2022-08-26T23:43:55.850Z,99602.25
2022-08-26T23:46:44.321Z,99601.97
2022-08-26T23:49:33.012Z,99602.81
2022-08-26T23:52:39.343Z,99604.31
2022-08-26T23:55:27.929Z,99602.81
2022-08-26T23:58:16.628Z,99605.84
